createdAt,value
2019-05-19T00:01:32.881Z,41.88
2019-05-19T00:04:08.253Z,41.02
2019-05-19T00:06:43.458Z,43.60
2019-05-19T00:09:19.073Z,40.05
2019-05-19T00:11:59.536Z,43.45
2019-05-19T00:14:34.711Z,43.90
2019-05-19T00:17:11.086Z,44.83
2019-05-19T00:19:46.935Z,43.02
2019-05-19T00:22:22.114Z,43.48
2019-05-19T00:24:57.438Z,45.10
2019-05-19T00:27:32.690Z,46.55
2019-05-19T00:30:08.354Z,44.13
2019-05-19T00:32:43.683Z,46.08
2019-05-19T00:35:19.001Z,44.67
2019-05-19T00:37:54.342Z,45.20
2019-05-19T00:40:29.613Z,47.08
2019-05-19T00:43:04.895Z,50.08
2019-05-19T00:45:40.232Z,48.48
2019-05-19T00:48:15.441Z,47.13
2019-05-19T00:50:50.809Z,47.83
2019-05-19T00:53:26.091Z,45.80
2019-05-19T00:56:03.209Z,46.00
2019-05-19T00:58:38.569Z,49.53
2019-05-19T01:01:13.805Z,43.13
2019-05-19T01:03:49.172Z,47.95
2019-05-19T01:06:24.514Z,44.55
2019-05-19T01:08:59.716Z,42.70
2019-05-19T01:11:35.084Z,44.48
2019-05-19T01:14:10.466Z,46.92
2019-05-19T01:16:45.687Z,47.93
2019-05-19T01:19:22.066Z,47.58
2019-05-19T01:21:59.875Z,54.90
2019-05-19T01:24:35.185Z,52.48
2019-05-19T01:27:10.416Z,56.58
2019-05-19T01:29:45.802Z,56.85
2019-05-19T01:32:21.222Z,59.13
2019-05-19T01:34:56.433Z,59.10
2019-05-19T01:37:31.647Z,56.83
2019-05-19T01:40:07.039Z,61.18
2019-05-19T01:42:42.285Z,60.85
2019-05-19T01:45:17.573Z,61.55
2019-05-19T01:47:52.981Z,60.95
2019-05-19T01:50:28.292Z,62.58
2019-05-19T01:53:03.526Z,61.83
2019-05-19T01:55:38.706Z,62.00
2019-05-19T01:58:14.004Z,59.18
2019-05-19T02:00:49.642Z,55.67
2019-05-19T02:03:24.901Z,52.95
2019-05-19T02:06:00.185Z,53.15
2019-05-19T02:08:35.519Z,58.85
2019-05-19T02:11:10.741Z,57.03
2019-05-19T02:13:46.104Z,52.80
2019-05-19T02:16:21.363Z,55.15
2019-05-19T02:18:56.700Z,53.73
2019-05-19T02:21:32.183Z,56.80
2019-05-19T02:24:07.499Z,57.30
2019-05-19T02:26:42.765Z,56.33
2019-05-19T02:29:17.987Z,56.55
2019-05-19T02:31:53.386Z,54.70
2019-05-19T02:34:28.701Z,60.55
2019-05-19T02:37:03.920Z,59.85
2019-05-19T02:39:39.237Z,54.20
2019-05-19T02:42:16.625Z,60.80
2019-05-19T02:44:52.678Z,61.18
2019-05-19T02:47:28.547Z,60.30
2019-05-19T02:50:05.045Z,64.80
2019-05-19T02:52:41.921Z,68.10
2019-05-19T02:55:18.946Z,69.95
2019-05-19T02:57:55.053Z,69.67
2019-05-19T03:00:43.490Z,64.72
2019-05-19T03:03:18.754Z,66.53
2019-05-19T03:05:53.988Z,68.25
2019-05-19T03:08:29.344Z,69.80
2019-05-19T03:11:04.685Z,65.87
2019-05-19T03:13:39.916Z,63.55
2019-05-19T03:16:15.222Z,60.45
2019-05-19T03:18:50.493Z,62.95
2019-05-19T03:21:25.712Z,62.98
2019-05-19T03:24:01.183Z,61.48
2019-05-19T03:26:37.413Z,63.52
2019-05-19T03:29:14.295Z,68.72
2019-05-19T03:31:56.188Z,61.40
2019-05-19T03:34:31.466Z,61.92
2019-05-19T03:37:06.768Z,57.98
2019-05-19T03:39:42.047Z,58.40
2019-05-19T03:42:17.447Z,59.88
2019-05-19T03:44:52.710Z,59.10
2019-05-19T03:47:28.024Z,60.65
2019-05-19T03:50:10.953Z,57.33
2019-05-19T03:52:46.178Z,58.38
2019-05-19T03:55:21.503Z,56.98
2019-05-19T03:57:56.738Z,57.03
2019-05-19T04:00:31.926Z,59.10
2019-05-19T04:03:07.209Z,56.02
2019-05-19T04:05:42.957Z,54.83
2019-05-19T04:08:18.191Z,59.38
2019-05-19T04:10:53.485Z,56.33
2019-05-19T04:13:28.802Z,62.85
2019-05-19T04:16:04.098Z,62.43
2019-05-19T04:18:39.415Z,61.68
2019-05-19T04:21:14.619Z,62.73
2019-05-19T04:23:49.842Z,58.75
2019-05-19T04:26:25.126Z,58.15
2019-05-19T04:29:00.511Z,61.13
2019-05-19T04:31:38.585Z,63.68
2019-05-19T04:34:13.910Z,60.90
2019-05-19T04:36:49.206Z,60.45
2019-05-19T04:39:24.629Z,62.88
2019-05-19T04:41:59.899Z,63.65
2019-05-19T04:44:35.262Z,65.52
2019-05-19T04:47:10.545Z,65.47
2019-05-19T04:49:45.933Z,68.17
2019-05-19T04:52:21.215Z,65.57
2019-05-19T04:54:56.438Z,66.55
2019-05-19T04:57:32.782Z,68.92
2019-05-19T05:00:08.827Z,73.37
2019-05-19T05:02:44.278Z,67.05
2019-05-19T05:05:19.722Z,60.80
2019-05-19T05:07:55.020Z,64.80
2019-05-19T05:10:30.322Z,70.67
2019-05-19T05:13:05.544Z,72.67
2019-05-19T05:15:40.790Z,74.77
2019-05-19T05:18:16.081Z,76.47
2019-05-19T05:20:51.423Z,72.95
2019-05-19T05:23:26.839Z,69.72
2019-05-19T05:26:02.163Z,64.22
2019-05-19T05:28:38.365Z,61.77
2019-05-19T05:31:15.538Z,62.67
2019-05-19T05:33:52.363Z,68.67
2019-05-19T05:36:28.831Z,70.45
2019-05-19T05:39:05.358Z,72.55
2019-05-19T05:41:40.699Z,74.32
2019-05-19T05:44:15.917Z,68.80
2019-05-19T05:46:51.516Z,74.37
2019-05-19T05:49:26.748Z,75.05
2019-05-19T05:52:02.054Z,75.60
2019-05-19T05:54:37.438Z,75.10
2019-05-19T05:57:12.777Z,78.17
2019-05-19T05:59:48.074Z,72.80
2019-05-19T06:02:23.323Z,80.00
2019-05-19T06:04:58.650Z,82.47
2019-05-19T06:07:33.990Z,83.47
2019-05-19T06:10:09.533Z,75.65
2019-05-19T06:12:44.930Z,77.60
2019-05-19T06:15:20.136Z,80.17
2019-05-19T06:17:55.440Z,83.90
2019-05-19T06:20:30.734Z,79.90
2019-05-19T06:23:07.674Z,83.30
2019-05-19T06:25:43.090Z,86.00
2019-05-19T06:28:18.398Z,88.25
2019-05-19T06:30:53.715Z,89.95
2019-05-19T06:33:28.980Z,95.70
2019-05-19T06:36:04.296Z,92.27
2019-05-19T06:38:39.715Z,90.53
2019-05-19T06:41:15.030Z,90.55
2019-05-19T06:43:50.357Z,93.22
2019-05-19T06:46:25.779Z,91.67
2019-05-19T06:49:01.112Z,94.83
2019-05-19T06:51:37.952Z,96.28
2019-05-19T06:54:13.266Z,87.10
2019-05-19T06:56:48.583Z,91.57
2019-05-19T06:59:23.866Z,91.65
2019-05-19T07:01:59.293Z,89.30
2019-05-19T07:04:34.612Z,89.85
2019-05-19T07:07:09.939Z,87.75
2019-05-19T07:09:57.398Z,88.00
2019-05-19T07:12:22.368Z,85.97
2019-05-19T07:14:57.708Z,90.92
2019-05-19T07:17:33.477Z,86.02
2019-05-19T07:20:10.518Z,87.80
2019-05-19T07:22:45.750Z,87.88
2019-05-19T07:25:20.998Z,86.82
2019-05-19T07:27:56.304Z,86.00
2019-05-19T07:30:31.796Z,87.65
2019-05-19T07:33:07.060Z,83.60
2019-05-19T07:35:42.398Z,83.62
2019-05-19T07:38:17.850Z,87.75
2019-05-19T07:40:53.178Z,82.42
2019-05-19T07:43:28.423Z,79.30
2019-05-19T07:46:03.734Z,77.25
2019-05-19T07:48:40.009Z,76.87
2019-05-19T07:51:15.340Z,68.72
2019-05-19T07:53:50.710Z,67.82
2019-05-19T07:56:27.641Z,65.85
2019-05-19T07:59:02.926Z,59.23
2019-05-19T08:01:38.255Z,62.30
2019-05-19T08:04:13.620Z,58.78
2019-05-19T08:06:49.613Z,58.40
2019-05-19T08:09:34.688Z,60.10
2019-05-19T08:12:09.942Z,53.73
2019-05-19T08:14:45.248Z,52.95
2019-05-19T08:17:20.639Z,53.83
2019-05-19T08:19:55.911Z,52.55
2019-05-19T08:22:31.413Z,43.35
2019-05-19T08:25:07.089Z,42.00
2019-05-19T08:27:42.407Z,51.20
2019-05-19T08:30:18.213Z,53.30
2019-05-19T08:32:54.440Z,55.67
2019-05-19T08:35:42.373Z,52.13
2019-05-19T08:38:17.946Z,55.50
2019-05-19T08:40:53.286Z,55.03
2019-05-19T08:43:28.553Z,56.18
2019-05-19T08:46:03.874Z,52.05
2019-05-19T08:48:40.306Z,48.05
2019-05-19T08:51:16.282Z,47.98
2019-05-19T08:57:05.374Z,36.35
2019-05-19T08:59:40.606Z,43.23
2019-05-19T09:02:15.735Z,42.38
2019-05-19T09:04:50.890Z,46.00
2019-05-19T09:07:26.190Z,49.40
2019-05-19T09:10:01.655Z,52.13
2019-05-19T09:12:37.192Z,55.43
2019-05-19T09:15:12.978Z,49.75
2019-05-19T09:17:48.217Z,54.15
2019-05-19T09:20:23.546Z,51.65
2019-05-19T09:22:58.916Z,49.65
2019-05-19T09:25:34.182Z,55.55
2019-05-19T09:28:09.524Z,56.70
2019-05-19T09:30:44.952Z,55.83
2019-05-19T09:33:21.275Z,54.83
2019-05-19T09:35:56.585Z,56.42
2019-05-19T09:38:32.042Z,56.08
2019-05-19T09:41:07.536Z,53.33
2019-05-19T09:43:42.736Z,60.30
2019-05-19T09:46:18.051Z,57.90
2019-05-19T09:49:12.301Z,55.95
2019-05-19T09:51:47.567Z,59.63
2019-05-19T09:54:22.863Z,58.87
2019-05-19T09:56:58.239Z,59.75
2019-05-19T09:59:34.417Z,59.90
2019-05-19T10:02:09.822Z,59.20
2019-05-19T10:04:45.726Z,57.25
2019-05-19T10:07:21.231Z,58.20
2019-05-19T10:10:05.076Z,59.18
2019-05-19T10:16:07.321Z,58.38
2019-05-19T10:18:42.620Z,63.30
2019-05-19T10:21:18.053Z,62.43
2019-05-19T10:23:53.482Z,58.95
2019-05-19T10:26:32.785Z,57.38
2019-05-19T10:29:08.094Z,59.08
2019-05-19T10:31:43.618Z,58.60
2019-05-19T10:34:18.921Z,55.98
2019-05-19T10:36:54.226Z,54.88
2019-05-19T10:39:29.431Z,56.53
2019-05-19T10:42:04.953Z,59.00
2019-05-19T10:44:40.343Z,55.48
2019-05-19T10:47:16.912Z,52.40
2019-05-19T10:49:53.176Z,51.98
2019-05-19T10:52:28.740Z,49.73
2019-05-19T10:55:04.359Z,51.02
2019-05-19T10:57:41.247Z,51.98
2019-05-19T11:00:17.047Z,48.28
2019-05-19T11:02:52.468Z,46.45
2019-05-19T11:05:27.914Z,43.28
2019-05-19T11:08:04.027Z,42.65
2019-05-19T11:10:39.393Z,48.85
2019-05-19T11:13:14.669Z,49.85
2019-05-19T11:15:52.058Z,49.70
2019-05-19T11:18:27.531Z,52.30
2019-05-19T11:21:02.940Z,46.90
2019-05-19T11:23:38.323Z,42.67
2019-05-19T11:26:13.715Z,41.37
2019-05-19T11:28:48.877Z,38.35
2019-05-19T11:31:24.135Z,37.55
2019-05-19T11:33:59.650Z,39.48
2019-05-19T11:36:35.040Z,38.17
2019-05-19T11:39:10.602Z,36.73
2019-05-19T11:41:45.994Z,39.00
2019-05-19T11:44:21.271Z,36.65
2019-05-19T11:46:56.629Z,33.83
2019-05-19T11:49:33.537Z,40.30
2019-05-19T11:52:08.818Z,36.15
2019-05-19T11:54:44.627Z,33.75
2019-05-19T11:57:19.958Z,38.90
2019-05-19T11:59:55.259Z,33.08
2019-05-19T12:02:30.710Z,38.78
2019-05-19T12:05:06.151Z,38.90
2019-05-19T12:07:41.568Z,35.98
2019-05-19T12:10:23.687Z,44.77
2019-05-19T12:13:01.302Z,41.73
2019-05-19T12:15:38.096Z,36.20
2019-05-19T12:18:16.764Z,34.75
2019-05-19T12:20:52.490Z,34.55
2019-05-19T12:23:34.048Z,32.70
2019-05-19T12:26:22.271Z,43.78
2019-05-19T12:28:51.567Z,39.53
2019-05-19T12:31:26.881Z,37.15
2019-05-19T12:34:02.172Z,37.85
2019-05-19T12:36:37.525Z,34.25
2019-05-19T12:39:13.076Z,35.00
2019-05-19T12:41:48.289Z,34.75
2019-05-19T12:44:23.635Z,35.92
2019-05-19T12:46:59.099Z,37.03
2019-05-19T12:49:34.436Z,38.88
2019-05-19T12:52:09.741Z,37.15
2019-05-19T12:54:45.109Z,37.40
2019-05-19T12:57:21.378Z,35.52
2019-05-19T12:59:59.717Z,48.80
2019-05-19T13:02:37.993Z,49.13
2019-05-19T13:05:12.231Z,51.45
2019-05-19T13:07:49.119Z,57.00
2019-05-19T13:10:24.577Z,57.65
2019-05-19T13:13:00.446Z,61.08
2019-05-19T13:15:37.252Z,70.75
2019-05-19T13:18:15.711Z,71.95
2019-05-19T13:20:51.607Z,78.78
2019-05-19T13:23:27.921Z,84.90
2019-05-19T13:26:07.926Z,85.65
2019-05-19T13:28:43.184Z,69.72
2019-05-19T13:31:18.596Z,64.35
2019-05-19T13:33:53.900Z,67.03
2019-05-19T13:36:29.327Z,60.83
2019-05-19T13:39:22.315Z,68.02
2019-05-19T13:41:57.629Z,77.30
2019-05-19T13:44:32.975Z,76.40
2019-05-19T13:47:08.293Z,71.33
2019-05-19T13:49:43.600Z,61.48
2019-05-19T13:52:19.033Z,31.87
2019-05-19T13:54:54.345Z,39.75
2019-05-19T13:57:29.581Z,48.63
2019-05-19T14:00:06.457Z,84.90
2019-05-19T14:02:42.588Z,73.45
2019-05-19T14:05:17.935Z,44.08
2019-05-19T14:07:53.348Z,44.63
2019-05-19T14:10:28.829Z,67.27
2019-05-19T14:13:04.199Z,84.50
2019-05-19T14:15:39.713Z,72.90
2019-05-19T14:18:15.108Z,68.47
2019-05-19T14:20:50.527Z,75.87
2019-05-19T14:23:26.050Z,62.88
2019-05-19T14:26:01.375Z,76.35
2019-05-19T14:28:36.745Z,79.35
2019-05-19T14:31:13.101Z,58.52
2019-05-19T14:33:48.469Z,64.65
2019-05-19T14:36:23.760Z,69.17
2019-05-19T14:39:06.138Z,70.62
2019-05-19T14:41:46.273Z,68.47
2019-05-19T14:44:21.590Z,68.95
2019-05-19T14:47:16.987Z,85.22
2019-05-19T14:49:52.566Z,67.30
2019-05-19T14:52:28.531Z,91.22
2019-05-19T14:55:04.420Z,90.55
2019-05-19T14:57:44.977Z,68.62
2019-05-19T15:00:19.305Z,71.35
2019-05-19T15:02:54.631Z,63.55
2019-05-19T15:05:30.026Z,68.92
2019-05-19T15:08:05.250Z,66.97
2019-05-19T15:10:40.574Z,68.60
2019-05-19T15:13:16.395Z,71.05
2019-05-19T15:15:51.844Z,95.35
2019-05-19T15:18:27.169Z,81.67
2019-05-19T15:21:04.313Z,63.87
2019-05-19T15:23:39.658Z,65.22
2019-05-19T15:26:14.920Z,51.42
2019-05-19T15:28:50.226Z,51.48
2019-05-19T15:31:25.839Z,53.33
2019-05-19T15:34:01.499Z,48.33
2019-05-19T15:36:39.630Z,42.13
2019-05-19T15:39:14.944Z,42.00
2019-05-19T15:41:50.355Z,33.33
2019-05-19T15:44:25.638Z,37.67
2019-05-19T15:47:01.137Z,43.05
2019-05-19T15:49:36.524Z,43.65
2019-05-19T15:52:11.997Z,42.38
2019-05-19T15:54:47.361Z,46.77
2019-05-19T15:57:22.688Z,41.65
2019-05-19T15:59:58.043Z,39.90
2019-05-19T16:02:33.345Z,39.53
2019-05-19T16:05:09.364Z,40.75
2019-05-19T16:07:44.837Z,49.00
2019-05-19T16:10:21.145Z,53.02
2019-05-19T16:12:56.670Z,50.40
2019-05-19T16:15:31.914Z,32.85
2019-05-19T16:18:07.264Z,37.93
2019-05-19T16:20:45.088Z,41.35
2019-05-19T16:23:21.699Z,33.18
2019-05-19T16:25:57.018Z,33.45
2019-05-19T16:28:32.369Z,30.43
2019-05-19T16:31:07.686Z,32.15
2019-05-19T16:33:42.990Z,28.67
2019-05-19T16:36:18.343Z,33.20
2019-05-19T16:38:53.604Z,31.27
2019-05-19T16:41:28.976Z,31.33
2019-05-19T16:44:04.530Z,30.12
2019-05-19T16:46:39.930Z,36.53
2019-05-19T16:49:18.562Z,32.88
2019-05-19T16:51:54.244Z,34.75
2019-05-19T16:54:36.171Z,40.50
2019-05-19T16:57:11.651Z,38.88
2019-05-19T16:59:47.632Z,38.17
2019-05-19T17:02:25.733Z,40.98
2019-05-19T17:05:01.185Z,45.90
2019-05-19T17:07:37.221Z,48.63
2019-05-19T17:10:12.862Z,40.05
2019-05-19T17:12:50.242Z,50.33
2019-05-19T17:15:36.986Z,48.63
2019-05-19T17:18:12.481Z,39.78
2019-05-19T17:20:47.907Z,45.12
2019-05-19T17:23:23.317Z,47.93
2019-05-19T17:25:58.747Z,45.35
2019-05-19T17:28:34.124Z,38.28
2019-05-19T17:31:09.891Z,45.70
2019-05-19T17:33:45.309Z,44.95
2019-05-19T17:36:20.621Z,57.17
2019-05-19T17:38:56.190Z,64.85
2019-05-19T17:41:31.757Z,55.40
2019-05-19T17:44:07.191Z,67.67
2019-05-19T17:46:42.581Z,78.37
2019-05-19T17:49:18.301Z,67.95
2019-05-19T17:51:53.744Z,61.45
2019-05-19T17:54:28.994Z,62.93
2019-05-19T17:57:04.795Z,57.67
2019-05-19T17:59:43.500Z,51.77
2019-05-19T18:02:19.034Z,52.73
2019-05-19T18:04:54.730Z,56.15
2019-05-19T18:07:30.108Z,57.83
2019-05-19T18:10:06.945Z,60.65
2019-05-19T18:12:42.591Z,44.13
2019-05-19T18:15:17.980Z,46.30
2019-05-19T18:17:53.576Z,59.93
2019-05-19T18:20:28.979Z,49.15
2019-05-19T18:23:04.326Z,50.05
2019-05-19T18:25:39.707Z,54.53
2019-05-19T18:28:15.170Z,53.63
2019-05-19T18:30:50.518Z,52.95
2019-05-19T18:33:26.902Z,47.95
2019-05-19T18:36:02.356Z,50.05
2019-05-19T18:38:37.780Z,50.38
2019-05-19T18:41:13.160Z,52.95
2019-05-19T18:43:48.580Z,56.60
2019-05-19T18:46:24.006Z,47.50
2019-05-19T18:48:59.521Z,47.33
2019-05-19T18:51:34.965Z,51.35
2019-05-19T18:54:10.349Z,46.85
2019-05-19T18:56:45.873Z,49.25
2019-05-19T18:59:21.327Z,50.35
2019-05-19T19:01:56.961Z,56.77
2019-05-19T19:04:32.489Z,43.63
2019-05-19T19:07:08.019Z,47.15
2019-05-19T19:09:44.494Z,36.03
2019-05-19T19:12:19.760Z,38.60
2019-05-19T19:14:55.325Z,43.75
2019-05-19T19:17:30.633Z,43.38
2019-05-19T19:20:06.175Z,46.40
2019-05-19T19:22:41.614Z,41.95
2019-05-19T19:25:17.077Z,44.03
2019-05-19T19:27:52.563Z,45.33
2019-05-19T19:30:27.900Z,51.40
2019-05-19T19:33:03.286Z,51.73
2019-05-19T19:35:39.870Z,47.80
2019-05-19T19:38:15.243Z,49.00
2019-05-19T19:40:54.090Z,47.08
2019-05-19T19:43:28.108Z,54.93
2019-05-19T19:46:03.615Z,53.80
2019-05-19T19:48:39.022Z,50.60
2019-05-19T19:51:14.433Z,46.50
2019-05-19T19:53:49.794Z,48.25
2019-05-19T19:56:27.764Z,42.65
2019-05-19T19:59:03.344Z,54.65
2019-05-19T20:01:38.740Z,50.95
2019-05-19T20:04:14.417Z,49.90
2019-05-19T20:06:49.835Z,51.05
2019-05-19T20:09:25.317Z,67.60
2019-05-19T20:12:00.926Z,65.30
2019-05-19T20:14:38.587Z,65.65
2019-05-19T20:17:13.415Z,65.03
2019-05-19T20:19:48.804Z,66.22
2019-05-19T20:22:24.213Z,63.92
2019-05-19T20:24:59.619Z,71.15
2019-05-19T20:27:35.031Z,70.08
2019-05-19T20:30:12.231Z,74.32
2019-05-19T20:32:47.861Z,84.45
2019-05-19T20:35:23.178Z,74.87
2019-05-19T20:37:58.662Z,82.60
2019-05-19T20:40:34.222Z,67.53
2019-05-19T20:43:09.614Z,72.30
2019-05-19T20:45:45.439Z,79.45
2019-05-19T20:48:20.878Z,86.65
2019-05-19T20:50:56.352Z,79.95
2019-05-19T20:53:31.761Z,91.08
2019-05-19T20:56:07.085Z,88.33
2019-05-19T20:58:42.735Z,87.02
2019-05-19T21:01:18.254Z,89.62
2019-05-19T21:03:53.775Z,82.47
2019-05-19T21:06:32.015Z,113.65
2019-05-19T21:09:09.134Z,91.78
2019-05-19T21:11:44.636Z,92.42
2019-05-19T21:14:20.163Z,102.40
2019-05-19T21:16:55.544Z,108.60
2019-05-19T21:19:31.066Z,105.03
2019-05-19T21:22:06.451Z,105.52
2019-05-19T21:24:42.060Z,104.00
2019-05-19T21:27:18.973Z,113.70
2019-05-19T21:29:55.539Z,113.47
2019-05-19T21:32:31.162Z,109.00
2019-05-19T21:35:07.236Z,109.17
2019-05-19T21:37:44.885Z,131.03
2019-05-19T21:40:20.408Z,102.92
2019-05-19T21:42:55.818Z,134.22
2019-05-19T21:45:31.253Z,119.75
2019-05-19T21:48:06.657Z,110.22
2019-05-19T21:50:42.071Z,114.30
2019-05-19T21:53:17.593Z,116.97
2019-05-19T21:55:52.952Z,101.12
2019-05-19T21:58:28.456Z,100.53
2019-05-19T22:01:04.031Z,98.70
2019-05-19T22:03:39.528Z,112.80
2019-05-19T22:06:15.647Z,130.82
2019-05-19T22:08:51.143Z,128.18
2019-05-19T22:11:26.565Z,112.57
2019-05-19T22:14:02.302Z,120.15
2019-05-19T22:16:38.837Z,121.17
2019-05-19T22:19:15.937Z,114.70
2019-05-19T22:21:51.553Z,112.47
2019-05-19T22:24:26.967Z,125.53
2019-05-19T22:27:02.478Z,114.57
2019-05-19T22:29:37.864Z,120.53
2019-05-19T22:32:13.258Z,107.97
2019-05-19T22:34:48.686Z,102.65
2019-05-19T22:37:24.124Z,99.05
2019-05-19T22:39:59.514Z,99.92
2019-05-19T22:42:34.958Z,95.47
2019-05-19T22:45:10.926Z,108.22
2019-05-19T22:47:46.368Z,101.33
2019-05-19T22:50:21.874Z,100.02
2019-05-19T22:52:58.992Z,103.58
2019-05-19T22:55:34.404Z,94.65
2019-05-19T22:58:09.862Z,112.30
2019-05-19T23:00:45.284Z,109.10
2019-05-19T23:03:21.338Z,116.50
2019-05-19T23:06:00.087Z,110.60
2019-05-19T23:08:35.531Z,105.25
2019-05-19T23:11:10.918Z,121.55
2019-05-19T23:13:47.421Z,123.58
2019-05-19T23:16:22.810Z,112.40
2019-05-19T23:18:58.326Z,109.20
2019-05-19T23:21:34.565Z,116.08
2019-05-19T23:24:10.060Z,99.37
2019-05-19T23:26:45.419Z,115.90
2019-05-19T23:29:20.860Z,110.88
2019-05-19T23:32:06.872Z,111.03
2019-05-19T23:34:33.531Z,109.40
2019-05-19T23:37:08.949Z,109.27
2019-05-19T23:39:44.506Z,112.68
2019-05-19T23:42:21.163Z,107.95
2019-05-19T23:45:07.696Z,109.27
2019-05-19T23:47:43.056Z,118.55
2019-05-19T23:50:18.422Z,113.17
2019-05-19T23:52:53.866Z,119.72
2019-05-19T23:55:29.209Z,107.27
2019-05-19T23:58:04.636Z,125.20
